Thunder radar more information blitzortung!


Radar de pluja more information rain snow radar


Visita la nostra xarxa de llocs de meteo:

Template documentation
and downloads

And another site



Wind From: 11-12-2017 11:00 Until: 14:59 warning for: Wind Level: Yellow info button

Pagina Historial Weather Underground text

Diari Resum Novembre 24, 2017 Unitats:  Imperial    Mètric   Tant
« Previous Dia
SegĂźent Dia »
Diari Setmana Mensual Anual Personalitzada
  Maxima: Minima: Media:
Temperatura: 71.1 °F 45.3 °F 59.5 °F
Punt de rosada: 48.7 °F 35.8 °F 41.2 °F
Humitat: 81 % 41 % 51 %
Wind Speed: 6.9 mph 0 mph 1.9 mph
RĂ fegues de vent: 6.9 mph - -
Vent:- - SW
Pression baro: 30.2 in 30 in -
Precipitacions: 0 in    
Historical Graphs
 
 
Dades de taula per Novembre 24, 2017
Temps Temperatura Punt de rosada Pression baro Vent Wind Speed RĂ fegues de vent Humitat Rainfall Rate (Hourly)
00:05 45.3 °F 35.8 °F 30.1 in WSW 2 mph 3 mph 69 % 0 in
00:09 48.4 °F 42.8 °F 30.1 in WSW 2.4 mph 2.4 mph 81 % 0 in
00:15 45.9 °F 36.3 °F 30.1 in WSW 2 mph 3 mph 69 % 0 in
00:25 45.7 °F 36.1 °F 30.1 in WSW 2 mph 3 mph 69 % 0 in
00:35 46 °F 36.3 °F 30.1 in Calm   1 mph 69 % 0 in
00:45 47.3 °F 37.2 °F 30.1 in North 1 mph 2 mph 68 % 0 in
01:05 48.2 °F 37.4 °F 30.1 in North 1 mph 1 mph 66 % 0 in
01:15 48.2 °F 37 °F 30.1 in Calm   2 mph 65 % 0 in
01:25 48 °F 36.9 °F 30.1 in West 1 mph 1 mph 65 % 0 in
01:35 47.8 °F 37 °F 30.1 in WSW 1 mph 1 mph 66 % 0 in
01:45 48.2 °F 37 °F 30.1 in Calm   2 mph 65 % 0 in
01:55 48.2 °F 37 °F 30.1 in NW 1 mph 2 mph 65 % 0 in
02:05 48.4 °F 37.2 °F 30.1 in NW 1 mph 2 mph 65 % 0 in
02:15 48.6 °F 36.9 °F 30.1 in Calm   1 mph 64 % 0 in
02:25 48.6 °F 37.2 °F 30.1 in NW 1 mph 2 mph 65 % 0 in
02:35 48 °F 37.2 °F 30.1 in North 2 mph 3 mph 66 % 0 in
02:45 48 °F 37.2 °F 30.1 in NNE 1 mph 2 mph 66 % 0 in
02:55 48 °F 37.2 °F 30.1 in Calm   2 mph 66 % 0 in
03:05 48 °F 37.2 °F 30.1 in NW 1 mph 2 mph 66 % 0 in
03:25 48.2 °F 37.8 °F 30.2 in SW 1 mph 3 mph 67 % 0 in
03:35 48.9 °F 38.1 °F 30.2 in SW 1 mph 1 mph 66 % 0 in
03:55 50.4 °F 38.7 °F 30.1 in NNW 1 mph 3 mph 64 % 0 in
04:15 51.8 °F 39.6 °F 30.2 in NNW 1 mph 2 mph 63 % 0 in
04:25 52.9 °F 40.3 °F 30.2 in North 1 mph 2 mph 62 % 0 in
04:35 53.2 °F 41.4 °F 30.2 in NNW 1 mph 2 mph 64 % 0 in
10:38 53.8 °F 41.9 °F 30.2 in Calm   1.4 mph 64 % 0 in
10:39 54.3 °F 42.4 °F 30.2 in Calm   1.6 mph 64 % 0 in
10:44 54.3 °F 42.4 °F 30.2 in SW 2.3 mph 2.3 mph 64 % 0 in
10:49 54.7 °F 42.3 °F 30.2 in SW 2.3 mph   63 % 0 in
10:54 55.2 °F 42.8 °F 30.2 in SW 2.3 mph 2.3 mph 63 % 0 in
10:59 55.4 °F 43.3 °F 30.2 in SW 1.4 mph 1.4 mph 64 % 0 in
11:04 55.8 °F 43.9 °F 30.2 in SW 1.6 mph 1.6 mph 64 % 0 in
11:09 56.3 °F 43.9 °F 30.2 in Calm     63 % 0 in
11:14 56.3 °F 43.9 °F 30.2 in Calm     63 % 0 in
11:19 56.3 °F 43.3 °F 30.2 in Calm     62 % 0 in
11:24 57.4 °F 45 °F 30.2 in West 1.2 mph 1.2 mph 63 % 0 in
11:29 58.1 °F 45.7 °F 30.2 in NNE 1.2 mph 1.2 mph 63 % 0 in
11:34 58.5 °F 45.1 °F 30.2 in NNW 1.2 mph 1.2 mph 61 % 0 in
11:39 59.4 °F 45.5 °F 30.2 in West 1.2 mph   60 % 0 in
11:44 59.9 °F 46 °F 30.2 in SW 1.2 mph   60 % 0 in
11:49 60.6 °F 46.2 °F 30.2 in SW 1.2 mph 1.2 mph 59 % 0 in
11:54 61.2 °F 46.2 °F 30.2 in South 2.3 mph 2.3 mph 58 % 0 in
11:59 61.3 °F 46.4 °F 30.2 in SE 2.3 mph 2.3 mph 58 % 0 in
12:04 61.2 °F 45.9 °F 30.1 in ESE 2 mph 2 mph 57 % 0 in
12:09 61.9 °F 46.6 °F 30.1 in SSE 2.3 mph 2.3 mph 57 % 0 in
12:14 61.7 °F 45.3 °F 30.1 in SE 3.5 mph 3.5 mph 55 % 0 in
12:19 61.9 °F 46 °F 30.1 in ENE 3.5 mph 3.5 mph 56 % 0 in
12:24 62.6 °F 46.8 °F 30.1 in SW 2.3 mph 2.3 mph 56 % 0 in
12:29 63.1 °F 47.1 °F 30.1 in SW 3.5 mph 3.5 mph 56 % 0 in
12:34 63.9 °F 47.5 °F 30.1 in South 2.3 mph 2.3 mph 55 % 0 in
12:39 64.4 °F 47.8 °F 30.1 in SSE 2.3 mph 2.3 mph 55 % 0 in
12:44 65.1 °F 48.6 °F 30.1 in ESE 2.3 mph 2.3 mph 55 % 0 in
12:49 65.5 °F 47.8 °F 30.1 in SE 3.1 mph 3.1 mph 53 % 0 in
12:54 64.8 °F 47.1 °F 30.1 in ENE 3.5 mph 3.5 mph 53 % 0 in
12:59 64.9 °F 47.5 °F 30.1 in SE 3.5 mph 3.5 mph 53 % 0 in
13:04 64.8 °F 47.1 °F 30.1 in NE 3.3 mph 3.3 mph 53 % 0 in
13:09 64.8 °F 47.1 °F 30.1 in ENE 4.6 mph 4.6 mph 53 % 0 in
13:14 65.1 °F 47.7 °F 30.1 in ENE 3.5 mph 3.5 mph 53 % 0 in
13:19 65.7 °F 48 °F 30.1 in ENE 2.6 mph 2.6 mph 53 % 0 in
13:24 66 °F 47.8 °F 30.1 in SE 2.6 mph 2.6 mph 52 % 0 in
13:29 66.4 °F 47.7 °F 30.1 in ESE 2.3 mph 2.3 mph 51 % 0 in
13:34 66.6 °F 47.3 °F 30.1 in East 3.5 mph 3.5 mph 50 % 0 in
13:39 66.9 °F 47.1 °F 30.1 in East 3.6 mph 3.6 mph 49 % 0 in
13:44 67.1 °F 47.8 °F 30.1 in ENE 2.4 mph 2.4 mph 50 % 0 in
13:49 67.3 °F 47.5 °F 30.1 in ESE 4 mph 4 mph 49 % 0 in
13:54 67.3 °F 47.5 °F 30.1 in ESE 3.5 mph 3.5 mph 49 % 0 in
13:59 67.6 °F 47.8 °F 30.1 in ESE 2.3 mph 2.3 mph 49 % 0 in
14:04 68 °F 48 °F 30.1 in NE 1.2 mph   49 % 0 in
14:09 68 °F 48.7 °F 30.1 in WNW 3.5 mph 3.5 mph 50 % 0 in
14:14 68.4 °F 48.6 °F 30.1 in NNW 2.3 mph 2.3 mph 49 % 0 in
14:19 68.7 °F 48.2 °F 30.1 in SW 3.5 mph 3.5 mph 48 % 0 in
14:29 69.3 °F 48.2 °F 30.1 in WNW 4.6 mph 4.6 mph 47 % 0 in
14:34 69.6 °F 47.8 °F 30.1 in SW 3.5 mph 3.5 mph 46 % 0 in
14:39 69.8 °F 47.5 °F 30.1 in WNW 3.5 mph 3.6 mph 45 % 0 in
14:44 70 °F 47.7 °F 30.1 in SW 3.5 mph 3.5 mph 45 % 0 in
14:49 70.5 °F 47.5 °F 30.1 in SE 3.6 mph 3.6 mph 44 % 0 in
14:54 70.9 °F 47.3 °F 30.1 in NNW 3.5 mph 3.5 mph 43 % 0 in
14:59 70.9 °F 47.3 °F 30.1 in NNW 5.8 mph 5.8 mph 43 % 0 in
15:04 71.1 °F 47.5 °F 30.1 in West 6.9 mph 6.9 mph 43 % 0 in
15:09 70.3 °F 46.2 °F 30.1 in WNW 3.3 mph 3.3 mph 42 % 0 in
15:14 70 °F 45.9 °F 30.1 in West 4.6 mph 4.6 mph 42 % 0 in
15:19 69.8 °F 45 °F 30.1 in NW 2.9 mph 2.9 mph 41 % 0 in
15:24 69.6 °F 45.5 °F 30.1 in NW 2.3 mph 2.3 mph 42 % 0 in
15:29 69.6 °F 45.5 °F 30.1 in West 2.3 mph 2.3 mph 42 % 0 in
15:34 69.4 °F 44.8 °F 30.1 in SW 2.3 mph 2.3 mph 41 % 0 in
15:39 69.3 °F 45.1 °F 30.1 in West 3.5 mph 3.5 mph 42 % 0 in
15:44 69.1 °F 44.4 °F 30.1 in WNW 2.3 mph 2.3 mph 41 % 0 in
15:49 68.9 °F 45 °F 30.1 in WSW 3.5 mph 3.5 mph 42 % 0 in
15:54 68.7 °F 44.1 °F 30.1 in WNW 2.3 mph 2.3 mph 41 % 0 in
15:59 68.4 °F 43.7 °F 30.1 in WNW 3.5 mph 3.5 mph 41 % 0 in
16:04 68 °F 43.3 °F 30.1 in West 3.5 mph 3.5 mph 41 % 0 in
16:09 68 °F 43.3 °F 30.1 in West 3.5 mph 3.5 mph 41 % 0 in
16:14 67.6 °F 43.7 °F 30.1 in WSW 4.6 mph 4.6 mph 42 % 0 in
16:19 67.5 °F 43.5 °F 30.1 in West 4.6 mph 4.6 mph 42 % 0 in
16:24 67.3 °F 43.3 °F 30.1 in SW 2.6 mph 2.6 mph 42 % 0 in
16:29 67.1 °F 43.2 °F 30.1 in West 2.6 mph 2.6 mph 42 % 0 in
16:34 67.1 °F 43.2 °F 30.1 in West 2.3 mph 2.3 mph 42 % 0 in
16:39 67.3 °F 43.3 °F 30.1 in WNW 3.5 mph 3.5 mph 42 % 0 in
16:44 67.5 °F 43.5 °F 30.1 in WSW 6.2 mph 6.2 mph 42 % 0 in
16:49 67.3 °F 43.3 °F 30.1 in West 3.5 mph 3.5 mph 42 % 0 in
16:54 66.9 °F 43.2 °F 30.1 in West 3.3 mph 3.3 mph 42 % 0 in
17:00 66.7 °F 43 °F 30.1 in WSW 4.6 mph 4.6 mph 42 % 0 in
17:04 66.6 °F 42.6 °F 30.1 in West 2.3 mph 2.3 mph 42 % 0 in
17:09 66.4 °F 42.6 °F 30.1 in West 2.3 mph 2.3 mph 42 % 0 in
17:14 66 °F 42.3 °F 30.1 in West 2.3 mph 2.3 mph 42 % 0 in
17:15 66 °F 42.3 °F 30.1 in West 2.3 mph 2.3 mph 42 % 0 in
17:20 66 °F 43 °F 30.1 in WSW 3.5 mph 3.5 mph 43 % 0 in
17:25 65.7 °F 41.9 °F 30.1 in West 1.2 mph   42 % 0 in
17:30 65.5 °F 41.7 °F 30.1 in West 0.9 mph 1.6 mph 42 % 0 in
17:35 65.1 °F 42.1 °F 30.1 in NW 2.3 mph 2.3 mph 43 % 0 in
17:40 64.8 °F 41.2 °F 30.1 in NW 1.2 mph   42 % 0 in
17:45 64.6 °F 41 °F 30.1 in WNW 1.2 mph   42 % 0 in
17:47 64.4 °F 40.8 °F 30.1 in West 1.2 mph 1.2 mph 42 % 0 in
17:52 64.2 °F 41.2 °F 30.1 in WNW 2.3 mph 2.3 mph 43 % 0 in
17:57 64 °F 41.2 °F 30.1 in Calm     43 % 0 in
18:02 63.9 °F 40.8 °F 30.1 in WSW 2.4 mph   43 % 0 in
18:07 63.7 °F 40.8 °F 30.1 in Calm     43 % 0 in
18:10 55.4 °F 37.6 °F 30.1 in Calm   2 mph 51 % 0 in
18:12 63.7 °F 40.8 °F 30.1 in West 1.2 mph   43 % 0 in
18:17 63.9 °F 40.8 °F 30.1 in SW 2.3 mph 2.3 mph 43 % 0 in
18:20 55 °F 37.2 °F 30.1 in Calm   2 mph 51 % 0 in
18:22 63.7 °F 40.8 °F 30.1 in WSW 1.2 mph 1.2 mph 43 % 0 in
18:27 63.7 °F 40.8 °F 30.1 in WSW 3.5 mph 3.5 mph 43 % 0 in
18:30 54.7 °F 37.4 °F 30.1 in Calm   2 mph 52 % 0 in
18:32 63.5 °F 40.6 °F 30.1 in West 1.2 mph   43 % 0 in
18:37 62.8 °F 39.9 °F 30.1 in WSW 2.3 mph 2.3 mph 43 % 0 in
18:40 54.9 °F 37.6 °F 30.1 in Calm   2 mph 52 % 0 in
18:42 62.2 °F 39.9 °F 30.1 in WSW 2.3 mph 2.3 mph 44 % 0 in
18:47 61.9 °F 39.7 °F 30.1 in SW 4 mph 4 mph 44 % 0 in
18:48 61.9 °F 39.7 °F 30.1 in WSW 4.6 mph 4.6 mph 44 % 0 in
18:50 55 °F 37.8 °F 30.1 in Calm   1 mph 52 % 0 in
18:53 61.7 °F 40.1 °F 30.1 in SW 3.3 mph 3.3 mph 45 % 0 in
18:58 61.7 °F 40.1 °F 30.1 in WSW 2.3 mph 2.3 mph 45 % 0 in
19:00 54.9 °F 37.6 °F 30.1 in Calm     52 % 0 in
19:03 61.7 °F 40.1 °F 30.1 in West 2.4 mph 2.4 mph 45 % 0 in
19:08 61.7 °F 40.1 °F 30.1 in West 1.2 mph 1.2 mph 45 % 0 in
19:10 54.7 °F 37.4 °F 30.1 in NE 1 mph 1 mph 52 % 0 in
19:13 61.5 °F 39.9 °F 30.1 in WNW 1.2 mph   45 % 0 in
19:18 61.3 °F 39.7 °F 30.1 in Calm     45 % 0 in
19:20 54.9 °F 37.9 °F 30.1 in Calm   2 mph 53 % 0 in
19:23 61.2 °F 39.6 °F 30.1 in West 1.2 mph   45 % 0 in
19:28 61.2 °F 39.6 °F 30.1 in West 2.3 mph 2.3 mph 45 % 0 in
19:30 54.9 °F 37.9 °F 30.1 in Calm   2 mph 53 % 0 in
19:33 60.8 °F 39.4 °F 30.1 in SW 2.4 mph 2.4 mph 45 % 0 in
19:38 60.3 °F 38.8 °F 30.1 in SW 3.1 mph 3.1 mph 45 % 0 in
19:40 55 °F 38.1 °F 30 in Calm   2 mph 53 % 0 in
19:43 59.5 °F 38.1 °F 30.1 in SW 3.6 mph 3.6 mph 45 % 0 in
19:48 59.5 °F 38.7 °F 30.1 in West 2.3 mph 2.6 mph 46 % 0 in
19:50 54.9 °F 37.9 °F 30 in Calm   1 mph 53 % 0 in
19:53 60.4 °F 39.6 °F 30.1 in West 3.5 mph 3.5 mph 46 % 0 in
19:58 60.8 °F 39.9 °F 30.1 in West 2.6 mph 2.6 mph 46 % 0 in
20:00 54.7 °F 37.9 °F 30 in NW 1 mph 2 mph 53 % 0 in
20:03 61 °F 39.9 °F 30.1 in West 2.3 mph 2.4 mph 46 % 0 in
20:08 61 °F 39.9 °F 30.1 in West 2.4 mph 2.4 mph 46 % 0 in
20:10 54.7 °F 37.9 °F 30 in Calm   1 mph 53 % 0 in
20:13 61.2 °F 40.3 °F 30.1 in WSW 3.5 mph 3.5 mph 46 % 0 in
20:18 61.2 °F 40.3 °F 30.1 in West 3.5 mph 3.5 mph 46 % 0 in
20:20 54 °F 37.2 °F 30.1 in NW 1 mph 2 mph 53 % 0 in
20:23 61.3 °F 40.5 °F 30.1 in WSW 3.5 mph 3.5 mph 46 % 0 in
20:28 61.3 °F 40.5 °F 30.1 in West 4.6 mph 4.6 mph 46 % 0 in
20:30 54 °F 37.2 °F 30.1 in West 1 mph 2 mph 53 % 0 in
20:33 61.3 °F 40.5 °F 30.1 in WSW 3.5 mph 3.5 mph 46 % 0 in
20:38 61.2 °F 40.3 °F 30.1 in West 4.6 mph 4.6 mph 46 % 0 in
20:40 54 °F 37.2 °F 30.1 in WNW 1 mph 1 mph 53 % 0 in
20:43 61.3 °F 40.5 °F 30.1 in West 4.6 mph 4.6 mph 46 % 0 in
20:48 61.2 °F 40.3 °F 30.1 in West 3.5 mph 3.5 mph 46 % 0 in
20:50 52.9 °F 36.7 °F 30.1 in WNW 1 mph 2 mph 54 % 0 in
20:53 61 °F 39.9 °F 30.1 in West 3.5 mph 3.5 mph 46 % 0 in
20:58 60.6 °F 39.7 °F 30.1 in SW 2.3 mph 2.3 mph 46 % 0 in
21:00 52.9 °F 36.7 °F 30.1 in Calm   1 mph 54 % 0 in
21:03 60.4 °F 39.6 °F 30.1 in WSW 3.5 mph 3.5 mph 46 % 0 in
21:08 60.3 °F 39.4 °F 30.1 in WSW 3.5 mph 3.5 mph 46 % 0 in
21:10 53.1 °F 37.2 °F 30.1 in Calm     55 % 0 in
21:13 60.3 °F 39.4 °F 30.1 in West 3.3 mph 3.3 mph 46 % 0 in
21:19 60.3 °F 39.4 °F 30.1 in SW 2.3 mph 2.3 mph 46 % 0 in
21:20 53.1 °F 37.2 °F 30.1 in WSW 1 mph 2 mph 55 % 0 in
21:24 60.4 °F 39.6 °F 30.1 in West 2.3 mph 2.3 mph 46 % 0 in
21:29 59.5 °F 38.7 °F 30.1 in SW 3.5 mph 3.5 mph 46 % 0 in
21:30 52.3 °F 36.7 °F 30.1 in Calm   2 mph 55 % 0 in
21:34 58.8 °F 38.1 °F 30.1 in WSW 2.3 mph 2.3 mph 46 % 0 in
21:39 58.8 °F 38.1 °F 30.1 in WSW 2.3 mph 2.3 mph 46 % 0 in
21:40 52.2 °F 36.9 °F 30.1 in NE 1 mph 2 mph 56 % 0 in
21:44 58.8 °F 38.1 °F 30.1 in SW 2.3 mph 2.3 mph 46 % 0 in
21:49 58.8 °F 38.1 °F 30.1 in SW 2.3 mph 2.3 mph 46 % 0 in
21:50 51.6 °F 36.3 °F 30 in Calm   1 mph 56 % 0 in
21:54 58.6 °F 38.5 °F 30.1 in Calm     47 % 0 in
21:59 58.3 °F 38.1 °F 30.1 in Calm     47 % 0 in
22:00 51.3 °F 36.5 °F 30 in Calm     57 % 0 in
22:04 58.3 °F 38.1 °F 30.1 in SW 2.3 mph 2.3 mph 47 % 0 in
22:09 58.5 °F 38.3 °F 30.1 in WSW 2.3 mph 2.3 mph 47 % 0 in
22:10 51.1 °F 36.9 °F 30 in Calm   1 mph 58 % 0 in
22:14 58.3 °F 38.1 °F 30.1 in Calm     47 % 0 in
22:19 58.5 °F 38.3 °F 30.1 in West 1.2 mph 1.4 mph 47 % 0 in
22:20 50.7 °F 36.9 °F 30 in North 1 mph 1 mph 59 % 0 in
22:24 59.2 °F 38.8 °F 30.1 in WSW 2.4 mph 2.4 mph 47 % 0 in
22:29 59.5 °F 39.4 °F 30.1 in WSW 2.3 mph 2.4 mph 47 % 0 in
22:30 50 °F 36.1 °F 30 in Calm   2 mph 59 % 0 in
22:34 59.4 °F 39 °F 30.1 in WSW 1.6 mph 1.6 mph 47 % 0 in
22:39 59.2 °F 38.8 °F 30.1 in Calm     47 % 0 in
22:40 49.6 °F 36.3 °F 30 in Calm     60 % 0 in
22:44 58.8 °F 38.7 °F 30.1 in West 1.4 mph   47 % 0 in
22:49 58.3 °F 38.7 °F 30.1 in Calm     48 % 0 in
22:50 49.3 °F 36 °F 30 in Calm     60 % 0 in
22:54 57.7 °F 38.1 °F 30.1 in Calm     48 % 0 in
22:59 57.2 °F 37.8 °F 30.1 in Calm     48 % 0 in
23:00 49.6 °F 36.3 °F 30 in SSW 1 mph 1 mph 60 % 0 in
23:04 56.7 °F 37.2 °F 30.1 in NNW 2.3 mph 2.3 mph 48 % 0 in
23:09 56.1 °F 37.2 °F 30.1 in NNW 2.3 mph 2.3 mph 49 % 0 in
23:10 49.3 °F 36.3 °F 30 in Calm   1 mph 61 % 0 in
23:14 56.7 °F 37.8 °F 30.1 in NNW 1.2 mph 1.2 mph 49 % 0 in
23:19 56.8 °F 37.9 °F 30.1 in West 2.3 mph 2.3 mph 49 % 0 in
23:20 49.6 °F 37 °F 30 in Calm   1 mph 62 % 0 in
23:24 56.1 °F 37.2 °F 30.1 in WSW 2.3 mph 2.3 mph 49 % 0 in
23:29 55.8 °F 36.9 °F 30.1 in NNW 2.3 mph 2.3 mph 49 % 0 in
23:30 49.3 °F 36.9 °F 30 in NW 1 mph 2 mph 62 % 0 in
23:34 55.8 °F 37.4 °F 30.1 in NNW 1.2 mph 1.2 mph 50 % 0 in
23:39 55.6 °F 37.2 °F 30.1 in Calm     50 % 0 in
23:40 49.3 °F 36.9 °F 30 in ENE 2 mph 2 mph 62 % 0 in
23:44 55.8 °F 37.4 °F 30.1 in Calm     50 % 0 in
23:49 55.8 °F 37.4 °F 30.1 in Calm     50 % 0 in
23:50 49.3 °F 37.2 °F 30 in Calm   1 mph 63 % 0 in
23:54 55.8 °F 37.4 °F 30.1 in Calm     50 % 0 in
Meteo Sesrovires
Elogis d' Weather Underground - 3.75 mb

Guio original per  Jim McMurry - jmcmurry@mwt.net Adaptat per a la plantilla per  Wim van der Kuil - Leuven-Template.eu

Trobareu la nostra informacio del temps tambe a:

Weather Underground

AWEKAS